sensor_id;sensor_type;location;lat;lon;timestamp;pressure;altitude;pressure_sealevel;temperature;humidity
54822;BME280;41299;43.546;16.426;2022-11-24T00:01:16;100825.25;;;7.50;100.00
54822;BME280;41299;43.546;16.426;2022-11-24T00:03:45;100839.78;;;7.48;100.00
54822;BME280;41299;43.546;16.426;2022-11-24T00:06:12;100839.69;;;7.45;100.00
54822;BME280;41299;43.546;16.426;2022-11-24T00:08:38;100836.88;;;7.33;100.00
54822;BME280;41299;43.546;16.426;2022-11-24T00:11:08;100836.00;;;7.31;100.00
54822;BME280;41299;43.546;16.426;2022-11-24T00:13:34;100845.13;;;7.18;100.00
54822;BME280;41299;43.546;16.426;2022-11-24T00:16:04;100846.00;;;7.18;100.00
54822;BME280;41299;43.546;16.426;2022-11-24T00:18:35;100852.88;;;7.19;100.00
54822;BME280;41299;43.546;16.426;2022-11-24T00:21:12;100851.78;;;7.08;100.00
54822;BME280;41299;43.546;16.426;2022-11-24T00:23:58;100856.94;;;7.09;100.00
54822;BME280;41299;43.546;16.426;2022-11-24T00:26:25;100858.66;;;7.10;100.00
54822;BME280;41299;43.546;16.426;2022-11-24T00:28:52;100851.34;;;6.88;100.00
54822;BME280;41299;43.546;16.426;2022-11-24T00:31:19;100856.34;;;6.83;100.00
54822;BME280;41299;43.546;16.426;2022-11-24T00:33:48;100848.72;;;6.86;100.00
54822;BME280;41299;43.546;16.426;2022-11-24T00:36:15;100853.63;;;6.75;100.00
54822;BME280;41299;43.546;16.426;2022-11-24T00:38:46;100843.09;;;6.64;100.00
54822;BME280;41299;43.546;16.426;2022-11-24T00:41:17;100842.81;;;6.52;100.00
54822;BME280;41299;43.546;16.426;2022-11-24T00:43:46;100845.47;;;6.56;100.00
54822;BME280;41299;43.546;16.426;2022-11-24T00:46:20;100854.09;;;6.59;100.00
54822;BME280;41299;43.546;16.426;2022-11-24T00:48:45;100849.53;;;6.47;100.00
54822;BME280;41299;43.546;16.426;2022-11-24T00:51:29;100855.38;;;6.41;100.00
54822;BME280;41299;43.546;16.426;2022-11-24T00:53:58;100839.22;;;6.43;100.00
54822;BME280;41299;43.546;16.426;2022-11-24T00:56:24;100839.69;;;6.64;100.00
54822;BME280;41299;43.546;16.426;2022-11-24T00:58:50;100826.13;;;6.69;100.00
54822;BME280;41299;43.546;16.426;2022-11-24T01:01:19;100827.94;;;6.74;100.00
54822;BME280;41299;43.546;16.426;2022-11-24T01:03:53;100829.75;;;6.78;100.00
54822;BME280;41299;43.546;16.426;2022-11-24T01:06:24;100841.25;;;6.95;100.00
54822;BME280;41299;43.546;16.426;2022-11-24T01:08:50;100845.03;;;7.13;100.00
54822;BME280;41299;43.546;16.426;2022-11-24T01:11:23;100845.91;;;7.14;100.00
54822;BME280;41299;43.546;16.426;2022-11-24T01:13:53;100834.88;;;7.18;100.00
54822;BME280;41299;43.546;16.426;2022-11-24T01:16:23;100851.06;;;7.15;100.00
54822;BME280;41299;43.546;16.426;2022-11-24T01:18:49;100859.72;;;7.20;100.00
54822;BME280;41299;43.546;16.426;2022-11-24T01:21:14;100859.66;;;7.17;100.00
54822;BME280;41299;43.546;16.426;2022-11-24T01:23:40;100865.56;;;7.13;100.00
54822;BME280;41299;43.546;16.426;2022-11-24T01:26:10;100849.47;;;7.20;100.00
54822;BME280;41299;43.546;16.426;2022-11-24T01:28:36;100855.34;;;7.16;100.00
54822;BME280;41299;43.546;16.426;2022-11-24T01:31:03;100861.28;;;7.12;100.00
54822;BME280;41299;43.546;16.426;2022-11-24T01:33:28;100861.19;;;7.09;100.00
54822;BME280;41299;43.546;16.426;2022-11-24T01:35:55;100865.25;;;6.99;100.00
54822;BME280;41299;43.546;16.426;2022-11-24T01:38:24;100865.25;;;6.99;100.00
54822;BME280;41299;43.546;16.426;2022-11-24T01:40:58;100871.13;;;6.95;100.00
54822;BME280;41299;43.546;16.426;2022-11-24T01:43:26;100857.16;;;6.82;100.00
54822;BME280;41299;43.546;16.426;2022-11-24T01:45:51;100867.88;;;6.65;100.00
54822;BME280;41299;43.546;16.426;2022-11-24T01:48:19;100867.94;;;6.67;100.00
54822;BME280;41299;43.546;16.426;2022-11-24T01:50:51;100863.53;;;6.61;100.00
54822;BME280;41299;43.546;16.426;2022-11-24T01:53:19;100868.66;;;6.61;100.00
54822;BME280;41299;43.546;16.426;2022-11-24T01:55:48;100860.84;;;6.56;100.00
54822;BME280;41299;43.546;16.426;2022-11-24T01:58:17;100861.91;;;6.65;100.00
54822;BME280;41299;43.546;16.426;2022-11-24T02:00:44;100872.22;;;6.66;100.00
54822;BME280;41299;43.546;16.426;2022-11-24T02:03:14;100866.97;;;6.62;100.00
54822;BME280;41299;43.546;16.426;2022-11-24T02:05:49;100874.34;;;6.49;100.00
54822;BME280;41299;43.546;16.426;2022-11-24T02:08:19;100885.31;;;6.43;100.00
54822;BME280;41299;43.546;16.426;2022-11-24T02:10:45;100885.63;;;6.56;100.00
54822;BME280;41299;43.546;16.426;2022-11-24T02:13:11;100888.88;;;6.50;100.00
54822;BME280;41299;43.546;16.426;2022-11-24T02:15:38;100880.34;;;6.50;100.00
54822;BME280;41299;43.546;16.426;2022-11-24T02:18:06;100882.03;;;6.49;100.00
54822;BME280;41299;43.546;16.426;2022-11-24T02:20:34;100889.81;;;6.54;100.00
54822;BME280;41299;43.546;16.426;2022-11-24T02:23:06;100896.78;;;6.58;100.00
54822;BME280;41299;43.546;16.426;2022-11-24T02:25:37;100904.16;;;6.46;100.00
54822;BME280;41299;43.546;16.426;2022-11-24T02:28:06;100905.63;;;6.37;100.00
54822;BME280;41299;43.546;16.426;2022-11-24T02:30:35;100898.88;;;6.39;100.00
54822;BME280;41299;43.546;16.426;2022-11-24T02:33:00;100915.50;;;6.22;100.00
54822;BME280;41299;43.546;16.426;2022-11-24T02:35:26;100913.94;;;6.27;100.00
54822;BME280;41299;43.546;16.426;2022-11-24T02:37:52;100923.34;;;6.28;100.00
54822;BME280;41299;43.546;16.426;2022-11-24T02:40:19;100925.66;;;6.19;100.00
54822;BME280;41299;43.546;16.426;2022-11-24T02:42:49;100917.91;;;6.15;100.00
54822;BME280;41299;43.546;16.426;2022-11-24T02:45:18;100915.75;;;6.00;100.00
54822;BME280;41299;43.546;16.426;2022-11-24T02:47:44;100920.31;;;5.80;100.00
54822;BME280;41299;43.546;16.426;2022-11-24T02:50:10;100917.75;;;5.80;100.00
54822;BME280;41299;43.546;16.426;2022-11-24T02:52:38;100924.88;;;5.90;100.00
54822;BME280;41299;43.546;16.426;2022-11-24T02:55:03;100940.94;;;5.85;100.00
54822;BME280;41299;43.546;16.426;2022-11-24T02:57:29;100938.44;;;5.88;100.00
54822;BME280;41299;43.546;16.426;2022-11-24T02:59:54;100941.00;;;5.86;100.00
54822;BME280;41299;43.546;16.426;2022-11-24T03:02:20;100939.38;;;5.90;100.00
54822;BME280;41299;43.546;16.426;2022-11-24T03:04:46;100935.72;;;5.82;100.00
54822;BME280;41299;43.546;16.426;2022-11-24T03:07:11;100942.66;;;5.86;100.00
54822;BME280;41299;43.546;16.426;2022-11-24T03:09:37;100938.00;;;5.71;100.00
54822;BME280;41299;43.546;16.426;2022-11-24T03:12:03;100939.88;;;5.78;100.00
54822;BME280;41299;43.546;16.426;2022-11-24T03:14:28;100950.31;;;5.55;100.00
54822;BME280;41299;43.546;16.426;2022-11-24T03:16:54;100945.22;;;5.55;100.00
54822;BME280;41299;43.546;16.426;2022-11-24T03:19:19;100947.75;;;5.55;100.00
54822;BME280;41299;43.546;16.426;2022-11-24T03:21:50;100959.47;;;5.47;100.00
54822;BME280;41299;43.546;16.426;2022-11-24T03:24:16;100947.69;;;5.52;100.00
54822;BME280;41299;43.546;16.426;2022-11-24T03:26:41;100954.56;;;5.55;100.00
54822;BME280;41299;43.546;16.426;2022-11-24T03:29:07;100958.88;;;5.56;100.00
54822;BME280;41299;43.546;16.426;2022-11-24T03:31:33;100965.03;;;5.62;100.00
54822;BME280;41299;43.546;16.426;2022-11-24T03:33:58;100960.97;;;5.69;100.00
54822;BME280;41299;43.546;16.426;2022-11-24T03:36:24;100957.56;;;5.70;100.00
54822;BME280;41299;43.546;16.426;2022-11-24T03:38:49;100961.91;;;5.73;100.00
54822;BME280;41299;43.546;16.426;2022-11-24T03:41:15;100955.06;;;5.72;100.00
54822;BME280;41299;43.546;16.426;2022-11-24T03:43:40;100963.56;;;5.71;100.00
54822;BME280;41299;43.546;16.426;2022-11-24T03:46:08;100946.91;;;5.85;100.00
54822;BME280;41299;43.546;16.426;2022-11-24T03:48:34;100962.38;;;5.88;100.00
54822;BME280;41299;43.546;16.426;2022-11-24T03:51:00;100961.63;;;5.93;100.00
54822;BME280;41299;43.546;16.426;2022-11-24T03:53:29;100968.50;;;5.94;100.00
54822;BME280;41299;43.546;16.426;2022-11-24T03:59:09;100970.03;;;5.88;100.00
54822;BME280;41299;43.546;16.426;2022-11-24T04:01:37;100970.09;;;5.90;100.00
54822;BME280;41299;43.546;16.426;2022-11-24T04:04:11;100964.28;;;5.96;100.00
54822;BME280;41299;43.546;16.426;2022-11-24T04:06:37;100974.63;;;5.99;100.00
54822;BME280;41299;43.546;16.426;2022-11-24T04:09:02;100979.19;;;6.09;100.00
54822;BME280;41299;43.546;16.426;2022-11-24T04:11:31;100983.88;;;6.24;100.00
54822;BME280;41299;43.546;16.426;2022-11-24T04:14:15;100984.59;;;6.20;100.00
54822;BME280;41299;43.546;16.426;2022-11-24T04:16:42;100982.72;;;6.14;100.00
54822;BME280;41299;43.546;16.426;2022-11-24T04:19:32;100985.22;;;6.11;100.00
54822;BME280;41299;43.546;16.426;2022-11-24T04:21:58;100996.38;;;6.13;100.00
54822;BME280;41299;43.546;16.426;2022-11-24T04:24:23;100993.91;;;6.16;100.00
54822;BME280;41299;43.546;16.426;2022-11-24T04:26:51;100998.06;;;6.13;100.00
54822;BME280;41299;43.546;16.426;2022-11-24T04:29:17;101015.06;;;6.11;100.00
54822;BME280;41299;43.546;16.426;2022-11-24T04:31:43;101022.06;;;6.16;100.00
54822;BME280;41299;43.546;16.426;2022-11-24T04:34:09;101018.72;;;6.19;100.00
54822;BME280;41299;43.546;16.426;2022-11-24T04:36:37;101032.38;;;6.18;100.00
54822;BME280;41299;43.546;16.426;2022-11-24T04:39:05;101040.84;;;6.15;100.00
54822;BME280;41299;43.546;16.426;2022-11-24T04:41:31;101028.94;;;6.18;100.00
54822;BME280;41299;43.546;16.426;2022-11-24T04:43:56;101040.00;;;6.16;100.00
54822;BME280;41299;43.546;16.426;2022-11-24T04:46:22;101028.97;;;6.19;100.00
54822;BME280;41299;43.546;16.426;2022-11-24T04:48:47;101040.06;;;6.20;100.00
54822;BME280;41299;43.546;16.426;2022-11-24T04:51:13;101046.69;;;6.11;100.00
54822;BME280;41299;43.546;16.426;2022-11-24T04:53:39;101055.25;;;6.13;100.00
54822;BME280;41299;43.546;16.426;2022-11-24T04:56:05;101049.31;;;6.14;100.00
54822;BME280;41299;43.546;16.426;2022-11-24T04:58:30;101050.25;;;6.16;100.00
54822;BME280;41299;43.546;16.426;2022-11-24T05:00:59;101059.44;;;6.10;100.00
54822;BME280;41299;43.546;16.426;2022-11-24T05:03:24;101062.88;;;6.10;100.00
54822;BME280;41299;43.546;16.426;2022-11-24T05:05:50;101069.72;;;6.11;100.00
54822;BME280;41299;43.546;16.426;2022-11-24T05:08:15;101079.88;;;6.08;100.00
54822;BME280;41299;43.546;16.426;2022-11-24T05:10:41;101084.03;;;6.05;100.00
54822;BME280;41299;43.546;16.426;2022-11-24T05:13:10;101097.38;;;5.96;100.00
54822;BME280;41299;43.546;16.426;2022-11-24T05:15:37;101107.81;;;6.02;100.00
54822;BME280;41299;43.546;16.426;2022-11-24T05:18:07;101096.06;;;6.07;100.00
54822;BME280;41299;43.546;16.426;2022-11-24T05:20:33;101089.34;;;6.11;100.00
54822;BME280;41299;43.546;16.426;2022-11-24T05:23:02;101097.72;;;6.05;100.00
54822;BME280;41299;43.546;16.426;2022-11-24T05:25:28;101104.47;;;6.03;100.00
54822;BME280;41299;43.546;16.426;2022-11-24T05:27:57;101113.06;;;6.05;100.00
54822;BME280;41299;43.546;16.426;2022-11-24T05:30:23;101112.84;;;5.99;100.00
54822;BME280;41299;43.546;16.426;2022-11-24T05:32:48;101118.59;;;5.92;100.00
54822;BME280;41299;43.546;16.426;2022-11-24T05:35:14;101113.59;;;5.95;100.00
54822;BME280;41299;43.546;16.426;2022-11-24T05:37:43;101127.34;;;5.98;100.00
54822;BME280;41299;43.546;16.426;2022-11-24T05:40:08;101123.03;;;5.97;100.00
54822;BME280;41299;43.546;16.426;2022-11-24T05:42:34;101128.03;;;5.93;100.00
54822;BME280;41299;43.546;16.426;2022-11-24T05:45:09;101141.38;;;5.82;100.00
54822;BME280;41299;43.546;16.426;2022-11-24T05:47:36;101134.31;;;5.75;100.00
54822;BME280;41299;43.546;16.426;2022-11-24T05:50:02;101139.28;;;5.70;100.00
54822;BME280;41299;43.546;16.426;2022-11-24T05:52:30;101139.66;;;5.83;100.00
54822;BME280;41299;43.546;16.426;2022-11-24T05:54:55;101146.44;;;5.81;100.00
54822;BME280;41299;43.546;16.426;2022-11-24T05:57:23;101150.72;;;5.82;100.00
54822;BME280;41299;43.546;16.426;2022-11-24T05:59:49;101146.31;;;5.78;100.00
54822;BME280;41299;43.546;16.426;2022-11-24T06:02:17;101150.66;;;5.80;100.00
54822;BME280;41299;43.546;16.426;2022-11-24T06:04:48;101159.16;;;5.79;100.00
54822;BME280;41299;43.546;16.426;2022-11-24T06:07:13;101172.53;;;5.70;100.00
54822;BME280;41299;43.546;16.426;2022-11-24T06:09:44;101165.63;;;5.68;100.00
54822;BME280;41299;43.546;16.426;2022-11-24T06:12:10;101171.25;;;5.57;100.00
54822;BME280;41299;43.546;16.426;2022-11-24T06:14:36;101176.28;;;5.54;100.00
54822;BME280;41299;43.546;16.426;2022-11-24T06:17:02;101170.34;;;5.55;100.00
54822;BME280;41299;43.546;16.426;2022-11-24T06:19:30;101172.59;;;5.46;100.00
54822;BME280;41299;43.546;16.426;2022-11-24T06:21:58;101167.47;;;5.46;100.00
54822;BME280;41299;43.546;16.426;2022-11-24T06:24:24;101184.41;;;5.42;100.00
54822;BME280;41299;43.546;16.426;2022-11-24T06:26:49;101182.94;;;5.49;100.00
54822;BME280;41299;43.546;16.426;2022-11-24T06:29:14;101188.19;;;5.54;100.00
54822;BME280;41299;43.546;16.426;2022-11-24T06:31:40;101190.00;;;5.56;100.00
54822;BME280;41299;43.546;16.426;2022-11-24T06:34:06;101192.75;;;5.62;100.00
54822;BME280;41299;43.546;16.426;2022-11-24T06:36:53;101181.94;;;5.70;100.00
54822;BME280;41299;43.546;16.426;2022-11-24T06:39:17;101188.41;;;5.86;100.00
54822;BME280;41299;43.546;16.426;2022-11-24T06:41:43;101185.59;;;5.78;100.00
54822;BME280;41299;43.546;16.426;2022-11-24T06:44:08;101195.94;;;5.81;100.00
54822;BME280;41299;43.546;16.426;2022-11-24T06:46:36;101190.91;;;5.84;100.00
54822;BME280;41299;43.546;16.426;2022-11-24T06:49:02;101201.50;;;5.95;100.00
54822;BME280;41299;43.546;16.426;2022-11-24T06:51:27;101213.94;;;6.10;100.00
54822;BME280;41299;43.546;16.426;2022-11-24T06:53:53;101206.66;;;6.23;100.00
54822;BME280;41299;43.546;16.426;2022-11-24T06:56:21;101228.22;;;6.31;100.00
54822;BME280;41299;43.546;16.426;2022-11-24T06:58:47;101227.69;;;6.41;100.00
54822;BME280;41299;43.546;16.426;2022-11-24T07:01:33;101232.78;;;6.40;100.00
54822;BME280;41299;43.546;16.426;2022-11-24T07:04:02;101228.59;;;6.42;100.00
54822;BME280;41299;43.546;16.426;2022-11-24T07:06:28;101230.56;;;6.51;100.00
54822;BME280;41299;43.546;16.426;2022-11-24T07:08:53;101225.69;;;6.60;100.00
54822;BME280;41299;43.546;16.426;2022-11-24T07:11:20;101227.94;;;6.78;100.00
54822;BME280;41299;43.546;16.426;2022-11-24T07:13:46;101230.72;;;6.86;100.00
54822;BME280;41299;43.546;16.426;2022-11-24T07:18:41;101233.56;;;6.95;100.00
54822;BME280;41299;43.546;16.426;2022-11-24T07:21:06;101235.38;;;7.00;100.00
54822;BME280;41299;43.546;16.426;2022-11-24T07:23:34;101238.94;;;7.05;100.00
54822;BME280;41299;43.546;16.426;2022-11-24T07:26:03;101237.47;;;7.13;100.00
54822;BME280;41299;43.546;16.426;2022-11-24T07:28:29;101239.84;;;7.39;100.00
54822;BME280;41299;43.546;16.426;2022-11-24T07:30:55;101241.22;;;7.92;100.00
54822;BME280;41299;43.546;16.426;2022-11-24T07:33:24;101250.03;;;8.03;100.00
54822;BME280;41299;43.546;16.426;2022-11-24T07:36:08;101257.28;;;8.55;100.00
54822;BME280;41299;43.546;16.426;2022-11-24T07:38:33;101250.66;;;9.08;100.00
54822;BME280;41299;43.546;16.426;2022-11-24T07:41:03;101261.25;;;9.24;100.00
54822;BME280;41299;43.546;16.426;2022-11-24T07:43:32;101267.78;;;9.53;100.00
54822;BME280;41299;43.546;16.426;2022-11-24T07:45:58;101257.19;;;9.85;100.00
54822;BME280;41299;43.546;16.426;2022-11-24T07:48:37;101269.56;;;10.06;100.00
54822;BME280;41299;43.546;16.426;2022-11-24T07:51:08;101263.06;;;10.30;100.00
54822;BME280;41299;43.546;16.426;2022-11-24T07:53:53;101259.00;;;10.44;100.00
54822;BME280;41299;43.546;16.426;2022-11-24T07:59:12;101267.72;;;10.53;100.00
54822;BME280;41299;43.546;16.426;2022-11-24T08:01:49;101273.03;;;10.64;100.00
54822;BME280;41299;43.546;16.426;2022-11-24T08:04:20;101274.03;;;10.74;100.00
54822;BME280;41299;43.546;16.426;2022-11-24T08:12:39;101286.94;;;10.77;100.00
54822;BME280;41299;43.546;16.426;2022-11-24T08:21:14;101291.41;;;10.87;100.00
54822;BME280;41299;43.546;16.426;2022-11-24T09:40:05;101349.13;;;12.61;100.00
54822;BME280;41299;43.546;16.426;2022-11-24T09:43:08;101339.59;;;12.52;100.00
54822;BME280;41299;43.546;16.426;2022-11-24T10:31:37;101355.47;;;13.08;100.00
54822;BME280;41299;43.546;16.426;2022-11-24T11:27:18;101332.94;;;12.90;100.00
54822;BME280;41299;43.546;16.426;2022-11-24T12:57:57;101331.53;;;13.67;100.00
54822;BME280;41299;43.546;16.426;2022-11-24T13:35:01;101330.66;;;13.84;100.00
54822;BME280;41299;43.546;16.426;2022-11-24T14:05:13;101341.88;;;13.75;100.00
54822;BME280;41299;43.546;16.426;2022-11-24T14:08:25;101339.28;;;13.62;100.00
54822;BME280;41299;43.546;16.426;2022-11-24T14:14:12;101334.97;;;13.66;100.00
54822;BME280;41299;43.546;16.426;2022-11-24T14:48:59;101360.53;;;12.87;100.00
54822;BME280;41299;43.546;16.426;2022-11-24T14:57:38;101370.84;;;12.80;100.00
54822;BME280;41299;43.546;16.426;2022-11-24T15:20:58;101411.41;;;12.86;100.00
54822;BME280;41299;43.546;16.426;2022-11-24T15:53:51;101454.66;;;12.98;100.00
54822;BME280;41299;43.546;16.426;2022-11-24T15:56:27;101453.78;;;12.99;100.00
54822;BME280;41299;43.546;16.426;2022-11-24T15:58:56;101447.81;;;13.05;100.00
54822;BME280;41299;43.546;16.426;2022-11-24T16:01:58;101455.59;;;13.09;100.00
54822;BME280;41299;43.546;16.426;2022-11-24T16:17:09;101457.22;;;12.96;100.00
54822;BME280;41299;43.546;16.426;2022-11-24T16:20:06;101464.97;;;12.93;100.00
54822;BME280;41299;43.546;16.426;2022-11-24T16:22:56;101452.88;;;12.89;100.00
54822;BME280;41299;43.546;16.426;2022-11-24T17:02:04;101514.66;;;11.77;100.00
54822;BME280;41299;43.546;16.426;2022-11-24T17:04:37;101512.63;;;11.58;100.00
54822;BME280;41299;43.546;16.426;2022-11-24T17:10:14;101515.34;;;11.64;100.00
54822;BME280;41299;43.546;16.426;2022-11-24T17:24:59;101554.53;;;11.36;100.00
54822;BME280;41299;43.546;16.426;2022-11-24T17:27:44;101553.63;;;11.33;100.00
54822;BME280;41299;43.546;16.426;2022-11-24T17:30:19;101555.19;;;11.23;100.00
54822;BME280;41299;43.546;16.426;2022-11-24T17:32:47;101551.72;;;11.22;100.00
54822;BME280;41299;43.546;16.426;2022-11-24T17:35:24;101553.28;;;11.11;100.00
54822;BME280;41299;43.546;16.426;2022-11-24T17:37:55;101550.66;;;11.08;100.00
54822;BME280;41299;43.546;16.426;2022-11-24T17:40:31;101554.97;;;11.09;100.00
54822;BME280;41299;43.546;16.426;2022-11-24T17:43:03;101563.25;;;10.91;100.00
54822;BME280;41299;43.546;16.426;2022-11-24T17:45:28;101569.34;;;10.93;100.00
54822;BME280;41299;43.546;16.426;2022-11-24T17:47:55;101572.66;;;10.87;100.00
54822;BME280;41299;43.546;16.426;2022-11-24T17:50:20;101579.19;;;10.68;100.00
54822;BME280;41299;43.546;16.426;2022-11-24T17:52:49;101576.66;;;10.69;100.00
54822;BME280;41299;43.546;16.426;2022-11-24T17:55:18;101579.19;;;10.68;100.00
54822;BME280;41299;43.546;16.426;2022-11-24T17:57:46;101580.06;;;10.68;100.00
54822;BME280;41299;43.546;16.426;2022-11-24T18:00:14;101585.22;;;10.68;100.00
54822;BME280;41299;43.546;16.426;2022-11-24T18:02:49;101589.47;;;10.65;100.00
54822;BME280;41299;43.546;16.426;2022-11-24T18:05:38;101586.69;;;10.55;100.00
54822;BME280;41299;43.546;16.426;2022-11-24T18:08:06;101601.34;;;10.56;100.00
54822;BME280;41299;43.546;16.426;2022-11-24T18:10:38;101592.59;;;10.48;100.00
54822;BME280;41299;43.546;16.426;2022-11-24T18:13:04;101591.66;;;10.44;100.00
54822;BME280;41299;43.546;16.426;2022-11-24T18:15:35;101600.22;;;10.43;100.00
54822;BME280;41299;43.546;16.426;2022-11-24T18:18:16;101602.47;;;10.28;100.00
54822;BME280;41299;43.546;16.426;2022-11-24T18:20:42;101611.09;;;10.30;100.00
54822;BME280;41299;43.546;16.426;2022-11-24T18:23:07;101604.16;;;10.27;100.00
54822;BME280;41299;43.546;16.426;2022-11-24T18:25:35;101606.56;;;10.20;100.00
54822;BME280;41299;43.546;16.426;2022-11-24T18:28:16;101601.47;;;10.21;100.00
54822;BME280;41299;43.546;16.426;2022-11-24T18:30:47;101594.53;;;10.18;100.00
54822;BME280;41299;43.546;16.426;2022-11-24T18:33:16;101594.53;;;10.18;100.00
54822;BME280;41299;43.546;16.426;2022-11-24T18:35:57;101591.91;;;10.17;100.00
54822;BME280;41299;43.546;16.426;2022-11-24T18:38:31;101593.56;;;10.13;100.00
54822;BME280;41299;43.546;16.426;2022-11-24T18:40:57;101600.28;;;10.05;100.00
54822;BME280;41299;43.546;16.426;2022-11-24T18:43:31;101602.06;;;10.09;100.00
54822;BME280;41299;43.546;16.426;2022-11-24T18:46:09;101599.44;;;10.06;100.00
54822;BME280;41299;43.546;16.426;2022-11-24T18:48:52;101598.63;;;10.09;100.00
54822;BME280;41299;43.546;16.426;2022-11-24T18:51:20;101603.81;;;10.12;100.00
54822;BME280;41299;43.546;16.426;2022-11-24T18:53:50;101597.56;;;9.99;100.00
54822;BME280;41299;43.546;16.426;2022-11-24T18:56:18;101599.28;;;10.00;100.00
54822;BME280;41299;43.546;16.426;2022-11-24T18:58:44;101598.59;;;10.07;100.00
54822;BME280;41299;43.546;16.426;2022-11-24T19:01:16;101600.06;;;9.96;100.00
54822;BME280;41299;43.546;16.426;2022-11-24T19:03:43;101599.22;;;9.97;100.00
54822;BME280;41299;43.546;16.426;2022-11-24T19:06:13;101597.34;;;9.89;100.00
54822;BME280;41299;43.546;16.426;2022-11-24T19:08:39;101606.81;;;9.90;100.00
54822;BME280;41299;43.546;16.426;2022-11-24T19:11:04;101618.00;;;9.91;100.00
54822;BME280;41299;43.546;16.426;2022-11-24T19:13:30;101616.94;;;9.81;100.00
54822;BME280;41299;43.546;16.426;2022-11-24T19:15:57;101613.38;;;9.76;100.00
54822;BME280;41299;43.546;16.426;2022-11-24T19:18:24;101623.69;;;9.76;100.00
54822;BME280;41299;43.546;16.426;2022-11-24T19:20:50;101613.47;;;9.81;100.00
54822;BME280;41299;43.546;16.426;2022-11-24T19:23:16;101605.66;;;9.76;100.00
54822;BME280;41299;43.546;16.426;2022-11-24T19:25:45;101608.88;;;9.67;100.00
54822;BME280;41299;43.546;16.426;2022-11-24T19:31:20;101627.34;;;9.49;100.00
54822;BME280;41299;43.546;16.426;2022-11-24T19:33:45;101638.50;;;9.49;100.00
54822;BME280;41299;43.546;16.426;2022-11-24T19:36:15;101646.94;;;9.44;100.00
54822;BME280;41299;43.546;16.426;2022-11-24T19:38:48;101654.50;;;9.37;100.00
54822;BME280;41299;43.546;16.426;2022-11-24T19:41:14;101650.16;;;9.35;100.00
54822;BME280;41299;43.546;16.426;2022-11-24T19:43:43;101656.94;;;9.31;100.00
54822;BME280;41299;43.546;16.426;2022-11-24T19:46:11;101659.34;;;9.25;100.00
54822;BME280;41299;43.546;16.426;2022-11-24T19:49:00;101676.44;;;9.23;100.00
54822;BME280;41299;43.546;16.426;2022-11-24T19:51:37;101679.00;;;9.23;100.00
54822;BME280;41299;43.546;16.426;2022-11-24T19:54:06;101691.78;;;9.18;100.00
54822;BME280;41299;43.546;16.426;2022-11-24T19:56:34;101696.03;;;9.16;100.00
54822;BME280;41299;43.546;16.426;2022-11-24T19:59:03;101689.91;;;9.13;100.00
54822;BME280;41299;43.546;16.426;2022-11-24T20:01:29;101699.94;;;9.03;100.00
54822;BME280;41299;43.546;16.426;2022-11-24T20:03:56;101701.75;;;9.06;100.00
54822;BME280;41299;43.546;16.426;2022-11-24T20:06:23;101718.81;;;9.02;100.00
54822;BME280;41299;43.546;16.426;2022-11-24T20:08:49;101729.00;;;8.99;100.00
54822;BME280;41299;43.546;16.426;2022-11-24T20:11:15;101735.84;;;8.99;100.00
54822;BME280;41299;43.546;16.426;2022-11-24T20:13:41;101736.59;;;8.94;100.00
54822;BME280;41299;43.546;16.426;2022-11-24T20:16:08;101737.31;;;8.90;100.00
54822;BME280;41299;43.546;16.426;2022-11-24T20:18:36;101737.03;;;8.79;100.00
54822;BME280;41299;43.546;16.426;2022-11-24T20:21:03;101740.50;;;8.81;100.00
54822;BME280;41299;43.546;16.426;2022-11-24T20:23:29;101736.25;;;8.83;100.00
54822;BME280;41299;43.546;16.426;2022-11-24T20:25:54;101736.84;;;8.73;100.00
54822;BME280;41299;43.546;16.426;2022-11-24T20:31:45;101740.28;;;8.74;100.00
54822;BME280;41299;43.546;16.426;2022-11-24T20:34:14;101746.00;;;8.65;100.00
54822;BME280;41299;43.546;16.426;2022-11-24T20:36:41;101753.72;;;8.65;100.00
54822;BME280;41299;43.546;16.426;2022-11-24T20:39:10;101748.59;;;8.65;100.00
54822;BME280;41299;43.546;16.426;2022-11-24T20:41:37;101751.09;;;8.63;100.00
54822;BME280;41299;43.546;16.426;2022-11-24T20:44:04;101763.06;;;8.61;100.00
54822;BME280;41299;43.546;16.426;2022-11-24T20:46:34;101763.06;;;8.61;100.00
54822;BME280;41299;43.546;16.426;2022-11-24T20:49:00;101756.94;;;8.57;100.00
54822;BME280;41299;43.546;16.426;2022-11-24T20:51:28;101760.03;;;8.47;100.00
54822;BME280;41299;43.546;16.426;2022-11-24T20:53:56;101766.47;;;8.33;100.00
54822;BME280;41299;43.546;16.426;2022-11-24T20:56:23;101774.78;;;8.25;100.00
54822;BME280;41299;43.546;16.426;2022-11-24T20:58:49;101776.31;;;8.20;100.00
54822;BME280;41299;43.546;16.426;2022-11-24T21:01:18;101778.28;;;8.27;100.00
54822;BME280;41299;43.546;16.426;2022-11-24T21:03:45;101780.50;;;8.16;100.00
54822;BME280;41299;43.546;16.426;2022-11-24T21:06:11;101787.88;;;8.06;100.00
54822;BME280;41299;43.546;16.426;2022-11-24T21:08:43;101782.16;;;8.14;100.00
54822;BME280;41299;43.546;16.426;2022-11-24T21:11:14;101779.63;;;8.16;100.00
54822;BME280;41299;43.546;16.426;2022-11-24T21:13:40;101789.91;;;8.16;100.00
54822;BME280;41299;43.546;16.426;2022-11-24T21:18:52;101782.41;;;7.96;100.00
54822;BME280;41299;43.546;16.426;2022-11-24T21:24:24;101783.88;;;7.88;100.00